O Brien, Oregon
Current Conditions -  °F | °C
As of 4:34 AM on Monday 20 Oct 2014 (Local Time) from KBOK Reporting Station
Light Rain Light Rain  
Wind Chill: 55°   Ceiling: 200
Heat Index: 55°   Visibility: 2mi
Dew Point: 55°   Wind: 6mph
Humidity: 100%   Direction: NA
Pressure: 29.82"   Gusts: NA
Location:  42.0377°N, 123.721°W
Report Text: KBOK 201134Z AUTO VRB05KT 2SM -RA BR BKN002 BKN009 OVC017 13/13 A2982 RMK AO2 BKN V SCT P0003
Loading
Personal Weather Stations






























Interactive Weather Map
Tropical Storm Tracking
New forecast layout! Learn more

10-Day Weather Forecast

Advertisements
Track Severe Weather on mobile